createdAt,value
2023-04-29T00:01:20.985Z,33.79
2023-04-29T00:03:47.832Z,34.09
2023-04-29T00:06:15.445Z,33.91
2023-04-29T00:08:42.426Z,34.14
2023-04-29T00:11:11.509Z,33.82
2023-04-29T00:13:40.949Z,34.04
2023-04-29T00:16:08.837Z,34.17
2023-04-29T00:18:36.549Z,34.08
2023-04-29T00:21:06.047Z,33.80
2023-04-29T00:23:33.762Z,33.99
2023-04-29T00:26:00.974Z,33.88
2023-04-29T00:28:27.930Z,34.06
2023-04-29T00:30:56.106Z,34.08
2023-04-29T00:33:23.117Z,33.80
2023-04-29T00:35:50.416Z,34.14
2023-04-29T00:38:17.306Z,34.12
2023-04-29T00:40:44.781Z,34.14
2023-04-29T00:43:11.608Z,34.16
2023-04-29T00:45:38.638Z,33.99
2023-04-29T00:48:05.528Z,34.05
2023-04-29T00:50:32.783Z,33.83
2023-04-29T00:53:00.224Z,34.29
2023-04-29T00:55:27.292Z,34.08
2023-04-29T00:57:54.063Z,33.86
2023-04-29T01:00:21.294Z,34.06
2023-04-29T01:02:48.240Z,34.15
2023-04-29T01:05:15.500Z,34.06
2023-04-29T01:08:07.006Z,34.23
2023-04-29T01:10:41.746Z,34.21
2023-04-29T01:13:14.398Z,33.93
2023-04-29T01:15:48.157Z,34.32
2023-04-29T01:18:27.008Z,34.36
2023-04-29T01:20:54.019Z,34.32
2023-04-29T01:23:20.839Z,34.47
2023-04-29T01:25:49.122Z,34.50
2023-04-29T01:28:35.858Z,34.67
2023-04-29T01:31:25.975Z,34.59
2023-04-29T01:34:09.604Z,34.59
2023-04-29T01:37:01.535Z,34.72
2023-04-29T01:39:47.087Z,34.59
2023-04-29T01:42:25.252Z,34.69
2023-04-29T01:44:52.230Z,34.82
2023-04-29T01:47:19.194Z,34.86
2023-04-29T01:49:46.934Z,34.89
2023-04-29T01:52:13.944Z,34.93
2023-04-29T01:54:40.746Z,35.35
2023-04-29T01:57:07.852Z,35.33
2023-04-29T01:59:34.642Z,35.11
2023-04-29T02:02:01.715Z,35.10
2023-04-29T02:04:28.758Z,35.24
2023-04-29T02:06:55.866Z,35.56
2023-04-29T02:09:22.545Z,35.50
2023-04-29T02:11:49.520Z,35.72
2023-04-29T02:14:16.238Z,35.67
2023-04-29T02:16:46.497Z,35.23
2023-04-29T02:19:13.356Z,35.59
2023-04-29T02:21:40.347Z,35.38
2023-04-29T02:24:07.183Z,35.82
2023-04-29T02:26:34.533Z,35.77
2023-04-29T02:29:01.655Z,35.87
2023-04-29T02:31:29.351Z,36.15
2023-04-29T02:33:56.148Z,36.24
2023-04-29T02:36:23.993Z,35.66
2023-04-29T02:38:50.882Z,36.29
2023-04-29T02:41:18.263Z,36.25
2023-04-29T02:43:45.157Z,36.52
2023-04-29T02:46:12.314Z,36.55
2023-04-29T02:48:39.134Z,36.59
2023-04-29T02:51:06.677Z,36.45
2023-04-29T02:53:33.480Z,36.37
2023-04-29T02:56:00.491Z,36.47
2023-04-29T02:58:27.350Z,36.87
2023-04-29T03:00:54.400Z,36.66
2023-04-29T03:03:21.345Z,36.41
2023-04-29T03:05:48.568Z,36.56
2023-04-29T03:08:15.802Z,36.48
2023-04-29T03:10:43.085Z,36.55
2023-04-29T03:13:09.896Z,36.58
2023-04-29T03:15:37.027Z,36.47
2023-04-29T03:18:05.011Z,36.47
2023-04-29T03:20:32.736Z,36.40
2023-04-29T03:23:00.964Z,36.23
2023-04-29T03:25:28.676Z,36.69
2023-04-29T03:27:55.414Z,36.19
2023-04-29T03:30:22.436Z,36.45
2023-04-29T03:32:49.250Z,36.04
2023-04-29T03:35:16.306Z,36.20
2023-04-29T03:37:44.709Z,36.07
2023-04-29T03:40:12.815Z,36.18
2023-04-29T03:42:39.624Z,36.45
2023-04-29T03:45:07.235Z,35.89
2023-04-29T03:47:34.228Z,36.14
2023-04-29T03:50:01.322Z,36.15
2023-04-29T03:52:28.405Z,36.12
2023-04-29T03:54:55.367Z,36.22
2023-04-29T03:57:22.156Z,36.20
2023-04-29T03:59:50.641Z,36.29
2023-04-29T04:02:17.986Z,36.29
2023-04-29T04:04:45.629Z,36.20
2023-04-29T04:07:12.542Z,36.14
2023-04-29T04:09:39.649Z,36.35
2023-04-29T04:12:06.565Z,36.00
2023-04-29T04:14:34.484Z,36.12
2023-04-29T04:17:01.572Z,36.08
2023-04-29T04:19:30.575Z,36.09
2023-04-29T04:21:57.360Z,36.27
2023-04-29T04:24:24.411Z,36.06
2023-04-29T04:26:51.135Z,36.20
2023-04-29T04:29:18.220Z,36.06
2023-04-29T04:31:46.997Z,36.01
2023-04-29T04:34:14.385Z,36.17
2023-04-29T04:36:41.598Z,36.18
2023-04-29T04:39:08.620Z,35.88
2023-04-29T04:41:35.675Z,36.08
2023-04-29T04:44:03.167Z,36.19
2023-04-29T04:46:29.940Z,36.22
2023-04-29T04:48:56.938Z,36.10
2023-04-29T04:51:23.703Z,35.89
2023-04-29T04:53:50.745Z,35.87
2023-04-29T04:56:17.436Z,36.05
2023-04-29T04:58:44.409Z,35.97
2023-04-29T05:01:11.459Z,36.13
2023-04-29T05:03:38.778Z,36.07
2023-04-29T05:06:05.807Z,36.16
2023-04-29T05:08:32.814Z,36.22
2023-04-29T05:10:59.613Z,36.15
2023-04-29T05:13:26.839Z,36.11
2023-04-29T05:15:53.875Z,36.09
2023-04-29T05:18:21.058Z,36.08
2023-04-29T05:20:47.752Z,36.39
2023-04-29T05:23:14.952Z,36.18
2023-04-29T05:25:42.526Z,36.46
2023-04-29T05:28:09.545Z,36.59
2023-04-29T05:30:37.809Z,36.47
2023-04-29T05:33:05.096Z,36.40
2023-04-29T05:35:32.212Z,36.69
2023-04-29T05:37:59.238Z,36.44
2023-04-29T05:40:26.128Z,36.78
2023-04-29T05:42:53.247Z,36.64
2023-04-29T05:45:19.932Z,36.49
2023-04-29T05:47:47.050Z,36.77
2023-04-29T05:50:13.746Z,36.42
2023-04-29T05:52:40.831Z,36.87
2023-04-29T05:55:07.789Z,36.69
2023-04-29T05:57:34.806Z,36.62
2023-04-29T06:00:01.814Z,36.80
2023-04-29T06:02:28.971Z,36.91
2023-04-29T06:04:56.027Z,36.71
2023-04-29T06:07:23.448Z,36.84
2023-04-29T06:09:50.665Z,36.88
2023-04-29T06:12:17.851Z,36.93
2023-04-29T06:14:44.667Z,37.21
2023-04-29T06:17:12.413Z,37.17
2023-04-29T06:19:39.085Z,37.14
2023-04-29T06:22:06.102Z,37.21
2023-04-29T06:24:32.832Z,37.26
2023-04-29T06:26:59.849Z,37.44
2023-04-29T06:29:26.807Z,37.02
2023-04-29T06:31:54.354Z,37.24
2023-04-29T06:34:21.169Z,37.37
2023-04-29T06:36:48.224Z,37.20
2023-04-29T06:39:15.171Z,37.27
2023-04-29T06:41:42.166Z,37.23
2023-04-29T06:44:09.157Z,37.42
2023-04-29T06:46:36.238Z,37.24
2023-04-29T06:49:02.987Z,37.25
2023-04-29T06:51:30.064Z,36.96
2023-04-29T06:53:56.834Z,36.97
2023-04-29T06:56:23.940Z,37.19
2023-04-29T06:58:50.723Z,37.38
2023-04-29T07:01:17.921Z,37.22
2023-04-29T07:03:45.340Z,37.27
2023-04-29T07:06:12.658Z,37.23
2023-04-29T07:08:39.496Z,37.32
2023-04-29T07:11:06.497Z,37.28
2023-04-29T07:13:33.405Z,37.56
2023-04-29T07:16:00.482Z,37.45
2023-04-29T07:18:27.181Z,37.68
2023-04-29T07:20:55.822Z,37.75
2023-04-29T07:23:22.595Z,37.62
2023-04-29T07:25:49.626Z,38.13
2023-04-29T07:28:16.421Z,37.81
2023-04-29T07:30:43.434Z,38.44
2023-04-29T07:33:10.268Z,38.63
2023-04-29T07:35:37.386Z,38.75
2023-04-29T07:38:04.178Z,38.82
2023-04-29T07:40:31.231Z,39.07
2023-04-29T07:42:58.021Z,39.11
2023-04-29T07:45:25.060Z,39.42
2023-04-29T07:47:52.049Z,39.33
2023-04-29T07:50:19.276Z,38.90
2023-04-29T07:52:45.971Z,38.55
2023-04-29T07:55:13.074Z,38.95
2023-04-29T07:57:39.882Z,39.10
2023-04-29T08:00:07.654Z,38.55
2023-04-29T08:02:34.615Z,38.86
2023-04-29T08:05:03.238Z,39.01
2023-04-29T08:07:30.433Z,38.52
2023-04-29T08:09:57.610Z,39.06
2023-04-29T08:12:24.364Z,38.70
2023-04-29T08:14:51.506Z,38.50
2023-04-29T08:17:18.336Z,38.21
2023-04-29T08:19:45.933Z,38.68
2023-04-29T08:22:14.215Z,38.84
2023-04-29T08:24:42.836Z,38.38
2023-04-29T08:27:09.597Z,38.55
2023-04-29T08:29:36.717Z,38.44
2023-04-29T08:32:03.514Z,38.31
2023-04-29T08:34:31.861Z,38.28
2023-04-29T08:36:58.611Z,38.58
2023-04-29T08:39:26.116Z,38.52
2023-04-29T08:41:54.126Z,37.95
2023-04-29T08:44:21.634Z,38.42
2023-04-29T08:46:48.399Z,38.36
2023-04-29T08:49:15.408Z,38.41
2023-04-29T08:51:42.171Z,38.07
2023-04-29T08:54:09.487Z,37.96
2023-04-29T08:56:36.307Z,37.96
2023-04-29T08:59:04.327Z,38.40
2023-04-29T09:01:31.188Z,38.68
2023-04-29T09:04:31.180Z,38.17
2023-04-29T09:06:58.344Z,38.43
2023-04-29T09:09:25.483Z,38.40
2023-04-29T09:11:52.460Z,38.44
2023-04-29T09:14:19.539Z,38.25
2023-04-29T09:16:47.184Z,38.26
2023-04-29T09:19:35.269Z,38.25
2023-04-29T09:22:02.983Z,38.52
2023-04-29T09:24:30.945Z,38.67
2023-04-29T09:26:58.790Z,38.52
2023-04-29T09:29:25.941Z,38.29
2023-04-29T09:31:57.707Z,38.13
2023-04-29T09:34:37.379Z,38.59
2023-04-29T09:37:04.171Z,38.37
2023-04-29T09:39:38.865Z,38.36
2023-04-29T09:42:06.351Z,38.76
2023-04-29T09:44:35.992Z,38.63
2023-04-29T09:47:07.381Z,38.74
2023-04-29T09:49:40.832Z,38.62
2023-04-29T09:52:08.875Z,38.63
2023-04-29T09:54:36.652Z,38.84
2023-04-29T09:57:06.102Z,38.98
2023-04-29T09:59:37.534Z,38.71
2023-04-29T10:02:17.814Z,38.40
2023-04-29T10:04:46.563Z,38.57
2023-04-29T10:07:17.144Z,38.91
2023-04-29T10:09:45.201Z,39.24
2023-04-29T10:12:11.957Z,39.37
2023-04-29T10:14:50.389Z,39.42
2023-04-29T10:17:20.187Z,39.73
2023-04-29T10:19:56.023Z,39.78
2023-04-29T10:22:34.589Z,39.50
2023-04-29T10:25:02.277Z,39.92
2023-04-29T10:27:29.606Z,39.50
2023-04-29T10:29:56.998Z,39.84
2023-04-29T10:32:23.905Z,39.60
2023-04-29T10:34:51.769Z,39.91
2023-04-29T10:37:18.578Z,39.44
2023-04-29T10:39:53.486Z,40.13
2023-04-29T10:42:44.559Z,40.16
2023-04-29T10:45:24.660Z,39.80
2023-04-29T10:48:08.450Z,40.37
2023-04-29T10:50:49.068Z,40.63
2023-04-29T10:53:19.380Z,40.60
2023-04-29T10:55:59.931Z,40.59
2023-04-29T10:58:45.633Z,40.51
2023-04-29T11:01:17.007Z,40.64
2023-04-29T11:03:55.870Z,41.24
2023-04-29T11:06:25.206Z,41.17
2023-04-29T11:09:05.022Z,40.83
2023-04-29T11:12:04.191Z,40.78
2023-04-29T11:14:36.972Z,41.29
2023-04-29T11:17:05.774Z,41.01
2023-04-29T11:19:33.654Z,41.23
2023-04-29T11:22:10.332Z,40.69
2023-04-29T11:24:37.143Z,40.51
2023-04-29T11:27:07.329Z,40.64
2023-04-29T11:29:34.478Z,40.44
2023-04-29T11:32:04.594Z,39.93
2023-04-29T11:34:31.651Z,40.01
2023-04-29T11:36:58.410Z,39.66
2023-04-29T11:39:25.425Z,39.94
2023-04-29T11:41:52.832Z,39.11
2023-04-29T11:44:23.250Z,39.00
2023-04-29T11:46:50.022Z,39.54
2023-04-29T11:49:17.003Z,39.20
2023-04-29T11:51:43.746Z,39.73
2023-04-29T11:54:10.821Z,38.92
2023-04-29T11:56:38.303Z,38.85
2023-04-29T11:59:08.210Z,38.86
2023-04-29T12:01:36.144Z,38.23
2023-04-29T12:04:05.091Z,38.95
2023-04-29T12:06:32.161Z,38.23
2023-04-29T12:09:00.596Z,38.64
2023-04-29T12:11:28.249Z,38.58
2023-04-29T12:13:55.469Z,38.24
2023-04-29T12:16:24.149Z,37.96
2023-04-29T12:18:52.634Z,37.68
2023-04-29T12:21:19.346Z,37.84
2023-04-29T12:23:46.617Z,37.80
2023-04-29T12:26:13.873Z,37.44
2023-04-29T12:28:42.229Z,37.61
2023-04-29T12:31:09.746Z,37.91
2023-04-29T12:33:37.470Z,38.25
2023-04-29T12:36:04.500Z,38.44
2023-04-29T12:38:31.598Z,37.32
2023-04-29T12:40:59.318Z,37.09
2023-04-29T12:43:30.452Z,37.02
2023-04-29T12:46:10.653Z,37.26
2023-04-29T12:48:43.973Z,36.73
2023-04-29T12:51:11.665Z,37.07
2023-04-29T12:53:39.142Z,37.30
2023-04-29T12:56:06.579Z,36.75
2023-04-29T12:58:34.884Z,36.72
2023-04-29T13:01:01.803Z,36.73
2023-04-29T13:03:29.107Z,36.77
2023-04-29T13:05:56.072Z,37.15
2023-04-29T13:08:23.229Z,36.89
2023-04-29T13:10:50.104Z,36.65
2023-04-29T13:13:17.213Z,37.10
2023-04-29T13:15:44.189Z,36.61
2023-04-29T13:18:11.382Z,37.11
2023-04-29T13:20:41.451Z,36.79
2023-04-29T13:23:09.680Z,37.17
2023-04-29T13:25:36.517Z,37.13
2023-04-29T13:28:05.523Z,36.87
2023-04-29T13:30:33.202Z,37.36
2023-04-29T13:33:08.356Z,36.86
2023-04-29T13:35:40.255Z,37.09
2023-04-29T13:38:08.425Z,36.69
2023-04-29T13:40:39.231Z,36.75
2023-04-29T13:43:09.812Z,36.91
2023-04-29T13:45:39.914Z,37.20
2023-04-29T13:48:20.814Z,37.31
2023-04-29T14:01:05.853Z,37.14
2023-04-29T14:03:39.699Z,37.27
2023-04-29T14:06:07.350Z,37.08
2023-04-29T14:08:34.472Z,37.58
2023-04-29T14:11:01.279Z,37.15
2023-04-29T14:13:29.352Z,37.27
2023-04-29T14:15:56.762Z,37.55
2023-04-29T14:18:23.920Z,37.28
2023-04-29T14:20:50.610Z,37.51
2023-04-29T14:23:17.614Z,37.58
2023-04-29T14:25:44.384Z,37.93
2023-04-29T14:28:11.449Z,37.82
2023-04-29T14:30:38.165Z,37.80
2023-04-29T14:33:05.524Z,37.61
2023-04-29T14:35:32.405Z,37.95
2023-04-29T14:37:59.429Z,37.96
2023-04-29T14:40:26.283Z,37.69
2023-04-29T14:42:53.361Z,37.99
2023-04-29T14:45:20.121Z,38.01
2023-04-29T14:47:47.303Z,37.77
2023-04-29T14:50:14.109Z,37.92
2023-04-29T14:52:41.167Z,37.56
2023-04-29T14:55:09.124Z,38.01
2023-04-29T14:57:36.171Z,38.85
2023-04-29T15:00:03.828Z,38.45
2023-04-29T15:02:31.117Z,38.51
2023-04-29T15:04:57.904Z,38.77
2023-04-29T15:07:24.920Z,39.51
2023-04-29T15:09:51.715Z,39.50
2023-04-29T15:12:20.001Z,39.54
2023-04-29T15:14:47.611Z,39.20
2023-04-29T15:17:14.646Z,39.15
2023-04-29T15:19:41.461Z,39.14
2023-04-29T15:22:08.494Z,38.57
2023-04-29T15:24:35.294Z,39.42
2023-04-29T15:27:03.210Z,38.93
2023-04-29T15:29:32.518Z,39.03
2023-04-29T15:31:59.610Z,39.28
2023-04-29T15:34:26.455Z,38.97
2023-04-29T15:36:53.586Z,39.32
2023-04-29T15:39:20.367Z,38.88
2023-04-29T15:41:48.307Z,38.84
2023-04-29T15:44:15.136Z,39.56
2023-04-29T15:46:42.256Z,39.75
2023-04-29T15:49:08.973Z,39.13
2023-04-29T15:51:35.972Z,39.75
2023-04-29T15:54:02.758Z,40.23
2023-04-29T15:56:30.535Z,39.85
2023-04-29T15:58:57.235Z,39.77
2023-04-29T16:01:24.357Z,39.72
2023-04-29T16:03:51.356Z,39.41
2023-04-29T16:06:18.472Z,39.62
2023-04-29T16:08:45.866Z,40.09
2023-04-29T16:11:12.916Z,39.60
2023-04-29T16:13:39.600Z,39.63
2023-04-29T16:16:07.036Z,39.79
2023-04-29T16:18:33.936Z,39.73
2023-04-29T16:21:01.245Z,40.19
2023-04-29T16:23:28.508Z,40.23
2023-04-29T16:25:55.936Z,40.44
2023-04-29T16:28:22.952Z,39.98
2023-04-29T16:30:50.164Z,40.03
2023-04-29T16:33:16.889Z,39.95
2023-04-29T16:35:43.895Z,39.67
2023-04-29T16:38:10.681Z,39.93
2023-04-29T16:40:37.809Z,40.31
2023-04-29T16:43:04.589Z,39.86
2023-04-29T16:45:31.650Z,40.28
2023-04-29T16:47:58.580Z,40.22
2023-04-29T16:50:27.000Z,40.42
2023-04-29T16:52:53.771Z,40.82
2023-04-29T16:55:20.828Z,40.61
2023-04-29T16:57:47.593Z,40.32
2023-04-29T17:00:14.944Z,40.76
2023-04-29T17:02:43.049Z,40.76
2023-04-29T17:05:11.047Z,41.15
2023-04-29T17:07:38.008Z,40.83
2023-04-29T17:10:06.157Z,41.07
2023-04-29T17:12:33.419Z,41.13
2023-04-29T17:15:00.640Z,40.89
2023-04-29T17:17:27.442Z,40.96
2023-04-29T17:19:55.669Z,40.78
2023-04-29T17:22:22.769Z,41.28
2023-04-29T17:24:50.879Z,41.60
2023-04-29T17:27:17.936Z,41.07
2023-04-29T17:29:45.260Z,41.35
2023-04-29T17:32:14.939Z,41.46
2023-04-29T17:34:42.103Z,41.25
2023-04-29T17:37:09.314Z,41.53
2023-04-29T17:39:36.374Z,41.26
2023-04-29T17:42:03.195Z,41.10
2023-04-29T17:44:30.601Z,41.21
2023-04-29T17:46:57.411Z,40.77
2023-04-29T17:49:25.004Z,41.04
2023-04-29T17:51:52.504Z,41.55
2023-04-29T17:54:19.637Z,41.43
2023-04-29T17:56:46.531Z,41.75
2023-04-29T17:59:13.628Z,41.50
2023-04-29T18:01:40.746Z,41.52
2023-04-29T18:04:08.097Z,41.53
2023-04-29T18:06:35.065Z,41.51
2023-04-29T18:09:02.254Z,41.57
2023-04-29T18:11:29.376Z,41.63
2023-04-29T18:13:56.496Z,41.78
2023-04-29T18:16:23.371Z,41.91
2023-04-29T18:18:56.647Z,41.77
2023-04-29T18:21:27.628Z,42.50
2023-04-29T18:23:55.289Z,41.85
2023-04-29T18:26:22.335Z,42.06
2023-04-29T18:28:49.649Z,41.96
2023-04-29T18:31:16.710Z,42.42
2023-04-29T18:33:44.088Z,42.26
2023-04-29T18:36:11.162Z,42.72
2023-04-29T18:38:38.287Z,42.55
2023-04-29T18:41:06.683Z,42.97
2023-04-29T18:43:33.920Z,42.80
2023-04-29T18:46:00.887Z,42.33
2023-04-29T18:48:30.378Z,42.59
2023-04-29T18:50:59.954Z,42.66
2023-04-29T18:53:27.073Z,42.44
2023-04-29T18:55:53.910Z,41.87
2023-04-29T18:58:21.535Z,42.16
2023-04-29T19:00:48.681Z,42.02
2023-04-29T19:03:17.601Z,42.65
2023-04-29T19:05:45.390Z,42.19
2023-04-29T19:08:16.303Z,41.92
2023-04-29T19:10:44.218Z,42.05
2023-04-29T19:13:11.609Z,42.01
2023-04-29T19:15:39.086Z,42.39
2023-04-29T19:18:06.359Z,42.04
2023-04-29T19:20:33.258Z,41.72
2023-04-29T19:23:00.922Z,41.85
2023-04-29T19:25:27.849Z,42.07
2023-04-29T19:27:55.050Z,42.23
2023-04-29T19:30:21.988Z,41.62
2023-04-29T19:32:49.311Z,41.95
2023-04-29T19:35:16.193Z,41.93
2023-04-29T19:37:44.256Z,41.49
2023-04-29T19:40:11.438Z,41.68
2023-04-29T19:42:39.310Z,41.77
2023-04-29T19:45:07.783Z,41.93
2023-04-29T19:47:35.211Z,41.66
2023-04-29T19:50:02.341Z,42.22
2023-04-29T19:52:29.950Z,42.03
2023-04-29T19:54:57.125Z,41.92
2023-04-29T19:57:24.312Z,42.03
2023-04-29T19:59:51.278Z,42.08
2023-04-29T20:02:19.238Z,41.97
2023-04-29T20:04:46.220Z,41.65
2023-04-29T20:07:13.261Z,42.16
2023-04-29T20:09:40.305Z,42.04
2023-04-29T20:12:07.388Z,42.41
2023-04-29T20:14:34.372Z,42.19
2023-04-29T20:17:01.684Z,42.25
2023-04-29T20:19:28.962Z,42.04
2023-04-29T20:21:58.893Z,42.33
2023-04-29T20:24:25.771Z,41.99
2023-04-29T20:26:52.855Z,42.21
2023-04-29T20:29:19.641Z,41.48
2023-04-29T20:31:46.876Z,41.79
2023-04-29T20:34:13.718Z,41.62
2023-04-29T20:36:40.892Z,42.12
2023-04-29T20:39:09.344Z,41.60
2023-04-29T20:41:36.613Z,41.98
2023-04-29T20:44:03.650Z,41.88
2023-04-29T20:46:30.827Z,41.78
2023-04-29T20:48:57.746Z,41.90
2023-04-29T20:51:25.019Z,41.98
2023-04-29T20:53:52.055Z,42.02
2023-04-29T20:56:19.251Z,41.99
2023-04-29T20:58:46.107Z,41.90
2023-04-29T21:01:13.331Z,41.98
2023-04-29T21:03:40.666Z,42.14
2023-04-29T21:06:07.897Z,41.75
2023-04-29T21:08:34.646Z,41.76
2023-04-29T21:11:01.909Z,41.95
2023-04-29T21:13:28.689Z,42.09
2023-04-29T21:15:55.811Z,42.20
2023-04-29T21:18:22.740Z,42.31
2023-04-29T21:20:49.882Z,42.15
2023-04-29T21:23:16.725Z,42.39
2023-04-29T21:25:43.949Z,42.38
2023-04-29T21:28:10.890Z,42.40
2023-04-29T21:30:37.912Z,43.02
2023-04-29T21:33:05.006Z,43.02
2023-04-29T21:35:32.185Z,43.10
2023-04-29T21:37:59.016Z,43.13
2023-04-29T21:40:26.697Z,43.07
2023-04-29T21:42:55.374Z,43.77
2023-04-29T21:45:22.416Z,43.77
2023-04-29T21:47:49.170Z,43.59
2023-04-29T21:50:16.251Z,43.36
2023-04-29T21:52:43.043Z,43.25
2023-04-29T21:55:10.215Z,43.90
2023-04-29T21:57:44.468Z,44.43
2023-04-29T22:00:28.191Z,44.33
2023-04-29T22:02:54.932Z,44.29
2023-04-29T22:05:22.009Z,43.64
2023-04-29T22:07:48.793Z,43.82
2023-04-29T22:10:16.023Z,44.19
2023-04-29T22:12:42.786Z,43.82
2023-04-29T22:15:21.041Z,44.17
2023-04-29T22:17:54.877Z,43.76
2023-04-29T22:20:21.879Z,44.05
2023-04-29T22:22:48.655Z,43.85
2023-04-29T22:25:15.726Z,43.79
2023-04-29T22:27:42.444Z,43.93
2023-04-29T22:30:09.880Z,44.09
2023-04-29T22:32:36.651Z,44.24
2023-04-29T22:35:04.152Z,44.36
2023-04-29T22:37:30.853Z,45.05
2023-04-29T22:39:57.854Z,44.63
2023-04-29T22:42:24.676Z,44.65
2023-04-29T22:44:51.704Z,44.38
2023-04-29T22:47:18.418Z,44.49
2023-04-29T22:49:45.463Z,44.45
2023-04-29T22:52:12.243Z,44.73
2023-04-29T22:54:40.418Z,44.77
2023-04-29T22:57:07.511Z,45.09
2023-04-29T22:59:34.497Z,45.10
2023-04-29T23:02:01.246Z,44.77
2023-04-29T23:04:28.504Z,44.85
2023-04-29T23:06:55.189Z,44.85
2023-04-29T23:09:22.205Z,44.61
2023-04-29T23:11:49.029Z,44.40
2023-04-29T23:14:16.050Z,44.71
2023-04-29T23:16:42.750Z,44.57
2023-04-29T23:19:09.773Z,44.84
2023-04-29T23:21:36.463Z,44.90
2023-04-29T23:24:03.852Z,44.71
2023-04-29T23:26:30.679Z,44.87
2023-04-29T23:28:57.761Z,45.21
2023-04-29T23:31:24.655Z,45.12
2023-04-29T23:33:51.710Z,45.29
2023-04-29T23:36:18.456Z,44.82
2023-04-29T23:38:45.501Z,45.56
2023-04-29T23:41:12.190Z,45.93
2023-04-29T23:43:39.709Z,45.59
2023-04-29T23:46:06.591Z,44.74
2023-04-29T23:48:33.663Z,44.93
2023-04-29T23:51:00.482Z,45.51
2023-04-29T23:53:27.544Z,45.33
2023-04-29T23:55:54.267Z,44.93
2023-04-29T23:58:21.260Z,44.76
